createdAt,value
2022-10-09T00:03:58.981Z,5.40
2022-10-09T00:08:43.874Z,5.80
2022-10-09T00:13:27.470Z,5.37
2022-10-09T00:18:14.931Z,5.43
2022-10-09T00:22:58.359Z,5.30
2022-10-09T00:27:41.782Z,5.30
2022-10-09T00:32:25.403Z,4.60
2022-10-09T00:37:10.482Z,4.50
2022-10-09T00:41:54.288Z,5.50
2022-10-09T00:46:43.752Z,6.07
2022-10-09T00:51:27.923Z,6.30
2022-10-09T00:56:12.823Z,6.20
2022-10-09T01:00:56.381Z,5.50
2022-10-09T01:05:51.149Z,5.30
2022-10-09T01:10:40.962Z,5.47
2022-10-09T01:15:29.864Z,4.67
2022-10-09T01:20:42.251Z,4.80
2022-10-09T01:25:32.459Z,4.90
2022-10-09T01:30:17.338Z,4.77
2022-10-09T01:35:01.995Z,4.27
2022-10-09T01:39:47.715Z,5.03
2022-10-09T01:44:33.528Z,4.80
2022-10-09T01:49:29.390Z,4.33
2022-10-09T01:54:14.766Z,3.70
2022-10-09T01:59:02.198Z,3.97
2022-10-09T02:03:49.905Z,3.33
2022-10-09T02:08:38.275Z,3.77
2022-10-09T02:13:22.426Z,4.20
2022-10-09T02:18:12.451Z,4.20
2022-10-09T02:22:58.518Z,4.00
2022-10-09T02:27:43.556Z,4.40
2022-10-09T02:32:27.112Z,4.23
2022-10-09T02:37:10.737Z,3.70
2022-10-09T02:41:54.248Z,3.60
2022-10-09T02:46:39.228Z,4.23
2022-10-09T02:51:23.035Z,3.90
2022-10-09T02:56:06.813Z,4.00
2022-10-09T03:00:50.748Z,4.70
2022-10-09T03:05:35.617Z,3.73
2022-10-09T03:10:19.827Z,4.00
2022-10-09T03:15:03.424Z,4.07
2022-10-09T03:19:46.867Z,3.60
2022-10-09T03:24:32.043Z,4.17
2022-10-09T03:29:15.492Z,4.27
2022-10-09T03:33:59.089Z,5.30
2022-10-09T03:38:42.571Z,4.77
2022-10-09T03:43:27.476Z,4.90
2022-10-09T03:48:11.508Z,6.10
2022-10-09T03:52:54.898Z,4.93
2022-10-09T03:57:38.334Z,5.00
2022-10-09T04:02:23.180Z,4.87
2022-10-09T04:07:06.733Z,4.40
2022-10-09T04:11:50.193Z,5.23
2022-10-09T04:16:33.702Z,4.93
2022-10-09T04:21:18.644Z,6.03
2022-10-09T04:26:02.569Z,5.57
2022-10-09T04:30:45.985Z,5.00
2022-10-09T04:35:29.446Z,4.40
2022-10-09T04:40:14.276Z,5.30
2022-10-09T04:44:57.757Z,6.50
2022-10-09T04:49:41.148Z,6.40
2022-10-09T04:54:24.589Z,6.03
2022-10-09T04:59:09.486Z,5.00
2022-10-09T05:03:53.863Z,5.13
2022-10-09T05:08:37.895Z,5.60
2022-10-09T05:13:21.343Z,5.97
2022-10-09T05:18:06.370Z,5.20
2022-10-09T05:22:50.425Z,5.27
2022-10-09T05:27:34.033Z,5.40
2022-10-09T05:32:17.510Z,6.07
2022-10-09T05:37:02.482Z,4.90
2022-10-09T05:41:45.938Z,4.87
2022-10-09T05:46:29.970Z,7.90
2022-10-09T05:51:15.756Z,6.97
2022-10-09T05:56:11.727Z,5.00
2022-10-09T06:00:55.174Z,5.43
2022-10-09T06:05:38.644Z,5.60
2022-10-09T06:10:22.156Z,6.07
2022-10-09T06:15:09.415Z,6.00
2022-10-09T06:19:52.900Z,5.93
2022-10-09T06:24:36.924Z,6.10
2022-10-09T06:29:20.408Z,11.00
2022-10-09T06:34:05.234Z,14.50
2022-10-09T06:38:49.282Z,11.00
2022-10-09T06:43:32.771Z,10.77
2022-10-09T06:48:16.198Z,10.33
2022-10-09T06:53:01.153Z,9.80
2022-10-09T06:57:44.649Z,8.30
2022-10-09T07:02:28.413Z,8.13
2022-10-09T07:07:11.956Z,7.40
2022-10-09T07:11:56.957Z,7.50
2022-10-09T07:16:42.308Z,6.60
2022-10-09T07:21:25.993Z,6.67
2022-10-09T07:26:14.506Z,7.70
2022-10-09T07:31:07.818Z,6.77
2022-10-09T07:35:58.380Z,7.10
2022-10-09T07:40:41.838Z,6.33
2022-10-09T07:45:28.363Z,6.13
2022-10-09T07:50:13.334Z,5.37
2022-10-09T07:54:56.741Z,5.60
2022-10-09T07:59:40.194Z,5.33
2022-10-09T08:04:23.858Z,5.30
2022-10-09T08:09:09.517Z,5.37
2022-10-09T08:13:54.054Z,4.20
2022-10-09T08:18:38.122Z,5.13
2022-10-09T08:23:21.676Z,4.63
2022-10-09T08:28:06.917Z,5.27
2022-10-09T08:32:50.986Z,4.50
2022-10-09T08:37:34.812Z,4.10
2022-10-09T08:42:27.693Z,4.03
2022-10-09T08:47:18.011Z,3.67
2022-10-09T08:52:15.376Z,4.17
2022-10-09T08:57:01.272Z,3.53
2022-10-09T09:01:49.495Z,3.17
2022-10-09T09:06:44.180Z,4.30
2022-10-09T09:11:38.876Z,3.97
2022-10-09T09:16:30.664Z,4.30
2022-10-09T09:21:26.826Z,4.03
2022-10-09T09:26:16.643Z,4.10
2022-10-09T09:31:04.360Z,3.63
2022-10-09T09:35:53.293Z,3.90
2022-10-09T09:40:38.270Z,3.80
2022-10-09T09:45:26.522Z,3.70
2022-10-09T09:50:28.486Z,3.73
2022-10-09T09:55:27.751Z,3.40
2022-10-09T10:00:21.378Z,3.73
2022-10-09T10:05:23.235Z,3.53
2022-10-09T10:10:08.553Z,4.50
2022-10-09T10:14:52.545Z,4.93
2022-10-09T10:19:36.170Z,3.97
2022-10-09T10:24:27.830Z,4.17
2022-10-09T10:29:18.938Z,4.57
2022-10-09T10:34:06.367Z,4.77
2022-10-09T10:38:56.422Z,4.80
2022-10-09T10:43:47.116Z,4.50
2022-10-09T10:48:33.151Z,4.20
2022-10-09T10:53:25.859Z,4.30
2022-10-09T10:58:25.178Z,4.37
2022-10-09T11:03:25.451Z,5.80
2022-10-09T11:08:22.006Z,4.30
2022-10-09T11:13:12.525Z,4.80
2022-10-09T11:18:04.007Z,4.40
2022-10-09T11:23:01.079Z,4.73
2022-10-09T11:27:50.392Z,5.00
2022-10-09T11:37:30.069Z,4.80
2022-10-09T11:42:19.627Z,5.37
2022-10-09T11:47:10.944Z,5.37
2022-10-09T11:52:01.272Z,5.00
2022-10-09T11:56:55.881Z,5.03
2022-10-09T12:01:43.147Z,5.10
2022-10-09T12:06:26.757Z,5.07
2022-10-09T12:11:19.426Z,5.27
2022-10-09T12:16:02.966Z,4.97
2022-10-09T12:20:50.803Z,5.27
2022-10-09T12:25:42.083Z,5.00
2022-10-09T12:30:30.659Z,6.00
2022-10-09T12:35:23.133Z,5.37
2022-10-09T12:40:16.408Z,5.10
2022-10-09T12:45:00.008Z,5.23
2022-10-09T12:49:43.500Z,5.33
2022-10-09T12:54:28.753Z,5.67
2022-10-09T12:59:14.815Z,6.27
2022-10-09T13:03:59.544Z,6.00
2022-10-09T13:08:43.621Z,5.93
2022-10-09T13:13:29.315Z,5.50
2022-10-09T13:18:23.318Z,5.70
2022-10-09T13:23:07.875Z,6.00
2022-10-09T13:27:51.852Z,6.40
2022-10-09T13:32:35.829Z,5.50
2022-10-09T13:37:23.723Z,5.67
2022-10-09T13:42:07.933Z,5.80
2022-10-09T13:46:51.510Z,5.67
2022-10-09T13:51:36.290Z,5.90
2022-10-09T13:56:21.421Z,5.47
2022-10-09T14:01:05.480Z,5.77
2022-10-09T14:05:49.070Z,5.40
2022-10-09T14:10:32.605Z,6.33
2022-10-09T14:15:17.997Z,6.53
2022-10-09T14:20:01.594Z,5.77
2022-10-09T14:24:45.098Z,5.30
2022-10-09T14:29:28.602Z,5.33
2022-10-09T14:34:14.723Z,5.43
2022-10-09T14:39:00.582Z,5.20
2022-10-09T14:43:44.072Z,5.63
2022-10-09T14:48:27.703Z,5.13
2022-10-09T14:53:12.634Z,5.23
2022-10-09T14:57:56.138Z,5.77
2022-10-09T15:02:40.099Z,4.80
2022-10-09T15:07:23.687Z,5.60
2022-10-09T15:12:08.742Z,5.17
2022-10-09T15:16:52.185Z,4.90
2022-10-09T15:21:37.111Z,5.77
2022-10-09T15:26:20.628Z,5.50
2022-10-09T15:31:07.115Z,5.73
2022-10-09T15:35:50.673Z,5.67
2022-10-09T15:40:43.084Z,5.83
2022-10-09T15:45:26.627Z,6.13
2022-10-09T15:50:12.502Z,6.03
2022-10-09T15:54:55.993Z,5.33
2022-10-09T15:59:41.529Z,5.00
2022-10-09T16:04:25.129Z,5.60
2022-10-09T16:09:10.123Z,6.30
2022-10-09T16:13:53.809Z,7.03
2022-10-09T16:18:37.774Z,5.83
2022-10-09T16:23:21.558Z,6.53
2022-10-09T16:28:08.270Z,5.97
2022-10-09T16:32:52.511Z,6.17
2022-10-09T16:37:36.480Z,6.93
2022-10-09T16:42:19.905Z,6.63
2022-10-09T16:47:04.777Z,7.10
2022-10-09T16:51:48.310Z,7.57
2022-10-09T16:56:34.236Z,7.77
2022-10-09T17:01:18.231Z,7.37
2022-10-09T17:06:03.507Z,8.13
2022-10-09T17:10:47.453Z,7.97
2022-10-09T17:15:32.112Z,7.87
2022-10-09T17:20:16.814Z,7.97
2022-10-09T17:25:02.409Z,8.50
2022-10-09T17:29:46.198Z,9.00
2022-10-09T17:34:30.249Z,9.53
2022-10-09T17:39:15.799Z,9.13
2022-10-09T17:44:01.308Z,8.97
2022-10-09T17:48:50.393Z,9.47
2022-10-09T17:53:34.569Z,10.17
2022-10-09T17:58:19.063Z,10.77
2022-10-09T18:03:04.270Z,9.20
2022-10-09T18:07:48.838Z,10.27
2022-10-09T18:12:33.446Z,10.83
2022-10-09T18:17:18.411Z,9.07
2022-10-09T18:22:04.513Z,11.20
2022-10-09T18:26:48.569Z,11.90
2022-10-09T18:31:33.818Z,11.77
2022-10-09T18:36:20.796Z,11.20
2022-10-09T18:41:09.650Z,10.60
2022-10-09T18:45:54.455Z,11.20
2022-10-09T18:50:39.482Z,13.47
2022-10-09T18:55:24.588Z,14.63
2022-10-09T19:00:11.707Z,13.83
2022-10-09T19:04:55.901Z,12.03
2022-10-09T19:09:40.124Z,11.63
2022-10-09T19:14:23.916Z,11.83
2022-10-09T19:19:09.043Z,12.10
2022-10-09T19:23:54.279Z,11.30
2022-10-09T19:28:39.479Z,9.50
2022-10-09T19:33:23.391Z,10.77
2022-10-09T19:38:09.124Z,10.27
2022-10-09T19:42:53.178Z,12.17
2022-10-09T19:47:37.877Z,11.57
2022-10-09T19:52:23.188Z,10.90
2022-10-09T19:57:08.708Z,11.43
2022-10-09T20:01:57.256Z,10.30
2022-10-09T20:06:43.153Z,10.90
2022-10-09T20:11:28.066Z,10.43
2022-10-09T20:16:14.610Z,10.23
2022-10-09T20:20:58.390Z,10.13
2022-10-09T20:25:42.133Z,9.20
2022-10-09T20:30:25.745Z,9.53
2022-10-09T20:35:11.221Z,10.67
2022-10-09T20:39:55.258Z,9.30
2022-10-09T20:44:39.076Z,9.83
2022-10-09T20:49:22.598Z,10.73
2022-10-09T20:54:09.124Z,8.60
2022-10-09T20:58:52.927Z,8.20
2022-10-09T21:03:37.459Z,7.83
2022-10-09T21:08:28.451Z,8.53
2022-10-09T21:13:14.678Z,8.33
2022-10-09T21:17:58.381Z,7.37
2022-10-09T21:22:41.991Z,7.57
2022-10-09T21:27:25.498Z,7.77
2022-10-09T21:32:10.545Z,8.10
2022-10-09T21:37:19.859Z,8.27
2022-10-09T21:41:59.719Z,6.93
2022-10-09T21:46:43.389Z,9.40
2022-10-09T21:51:28.735Z,6.20
2022-10-09T21:56:12.455Z,6.83
2022-10-09T22:00:59.841Z,6.93
2022-10-09T22:05:43.380Z,6.07
2022-10-09T22:10:28.668Z,7.37
2022-10-09T22:15:12.557Z,7.67
2022-10-09T22:19:56.043Z,9.90
2022-10-09T22:24:39.692Z,10.97
2022-10-09T22:29:24.634Z,9.93
2022-10-09T22:34:08.504Z,11.50
2022-10-09T22:38:54.607Z,10.37
2022-10-09T22:43:40.367Z,9.70
2022-10-09T22:48:25.340Z,13.40
2022-10-09T22:53:09.078Z,13.10
2022-10-09T22:57:52.594Z,13.77
2022-10-09T23:02:36.201Z,13.67
2022-10-09T23:07:21.105Z,12.20
2022-10-09T23:12:04.631Z,12.00
2022-10-09T23:16:48.269Z,12.60
2022-10-09T23:21:31.762Z,11.07
2022-10-09T23:26:18.783Z,10.73
2022-10-09T23:31:03.448Z,10.33
2022-10-09T23:35:46.988Z,10.47
2022-10-09T23:40:30.454Z,10.70
2022-10-09T23:45:16.145Z,10.53
2022-10-09T23:49:59.669Z,9.23
2022-10-09T23:54:43.299Z,9.80
2022-10-09T23:59:26.713Z,10.20
